Little Lake, California
Current Conditions -  °F | °C
As of 7:56 PM on Wednesday 26 Nov 2014 (Local Time) from KNID Reporting Station
Clear Clear  
Wind Chill: 45°   Ceiling: Unl
Heat Index: 47°   Visibility: 10mi
Dew Point:   Wind: 5mph
Humidity: 21%   Direction: 160°SSE
Pressure: 30.3"   Gusts: NA
Location:  35.94°N, 117.91°W
Report Text: KNID 270356Z 16004KT 10SM CLR 08/M13 A3030 RMK AO2 SLP269 T00831133 $
Loading
Personal Weather Stations






























Interactive Weather Map New forecast layout! Learn more

10-Day Weather Forecast

Advertisements
Track Severe Weather on mobile